Seaford, Virginia
Current Conditions -  °F | °C
As of 8:54 AM on Thursday 23 Oct 2014 (Local Time) from KPHF Reporting Station
Broken Clouds Broken Clouds  
Wind Chill: 56°   Ceiling: 4600
Heat Index: 56°   Visibility: 10mi
Dew Point: 43°   Wind: 13mph
Humidity: 62%   Direction: 310°NW
Pressure: 29.91"   Gusts: 24mph
Location:  37.2°N, 76.43°W
Report Text: KPHF 231254Z 31011G21KT 10SM BKN046 BKN065 13/06 A2991 RMK AO2 SLP127 T01330061
Loading
Personal Weather Stations






























Interactive Weather Map
Tropical Storm Tracking
New forecast layout! Learn more

10-Day Weather Forecast

Advertisements
Track Severe Weather on mobile